Time;durP1;ratioP1;P1;durP2;ratioP2;P2;SDS_P1;SDS_P2;PMS_P1;PMS_P2;Temp;Humidity;BMP_temperature;BMP_pressure;BME280_temperature;BME280_humidity;BME280_pressure;Samples;Min_cycle;Max_cycle;Signal;HPM_P1;HPM_P2
2024/04/09 00:02:04;;;;;;;39.88;33.42;;;17.50;99.90;;;22.57;52.69;98598.34;5551510;25;20005;-77
2024/04/09 00:04:39;;;;;;;40.03;34.00;;;17.50;99.90;;;22.49;53.44;98598.53;5562496;25;20007;-80
2024/04/09 00:07:12;;;;;;;45.15;33.55;;;17.50;99.90;;;22.47;53.43;98596.03;5533358;25;20023;-79
2024/04/09 00:09:51;;;;;;;40.90;32.50;;;17.40;99.90;;;22.50;53.14;98590.31;5555854;25;19993;-80
2024/04/09 00:12:25;;;;;;;45.80;34.45;;;17.40;99.90;;;22.52;53.43;98584.78;5555227;25;20005;-80
2024/04/09 00:14:55;;;;;;;41.15;32.63;;;17.40;99.90;;;22.51;53.36;98585.81;5553259;25;20003;-79
2024/04/09 00:17:25;;;;;;;43.30;32.70;;;17.40;99.90;;;22.52;53.41;98590.13;5556533;25;20028;-80
2024/04/09 00:20:09;;;;;;;39.88;31.10;;;17.40;99.90;;;22.53;52.97;98589.91;5562693;25;20438;-79
2024/04/09 00:22:41;;;;;;;43.78;30.25;;;17.40;99.90;;;22.55;52.52;98595.06;5559617;25;20002;-80
2024/04/09 00:25:19;;;;;;;36.97;29.08;;;17.40;99.90;;;22.53;52.47;98594.41;5563590;25;20481;-79
2024/04/09 00:27:47;;;;;;;39.67;31.08;;;17.30;99.90;;;22.44;52.15;98584.94;5560134;25;19996;-79
2024/04/09 00:30:23;;;;;;;37.92;28.52;;;17.30;99.90;;;22.41;52.59;98578.16;5562306;25;20000;-80
2024/04/09 00:33:00;;;;;;;41.70;30.15;;;17.30;99.90;;;22.41;52.68;98588.81;5526590;25;20018;-78
2024/04/09 00:35:28;;;;;;;38.97;27.45;;;17.30;99.90;;;22.42;52.83;98581.66;5533051;25;20004;-81
2024/04/09 00:38:06;;;;;;;36.85;26.40;;;17.30;99.90;;;22.45;52.76;98574.06;5549412;25;20470;-78
2024/04/09 00:40:42;;;;;;;36.10;26.23;;;17.30;99.90;;;22.44;51.99;98574.25;5560798;25;20798;-78
2024/04/09 00:43:17;;;;;;;36.80;25.80;;;17.30;99.90;;;22.37;52.40;98568.88;5547092;25;20012;-79
2024/04/09 00:45:51;;;;;;;38.22;24.45;;;17.30;99.90;;;22.40;52.14;98567.66;5536260;25;19996;-81
2024/04/09 00:48:26;;;;;;;34.58;24.58;;;17.30;99.90;;;22.36;51.82;98561.09;5527733;26;20331;-81
2024/04/09 00:50:59;;;;;;;34.15;25.13;;;17.20;99.90;;;22.33;52.04;98550.81;5542900;25;20000;-77
2024/04/09 00:53:36;;;;;;;30.75;22.48;;;17.20;99.90;;;22.33;51.72;98550.81;5548221;25;20482;-78
2024/04/09 00:56:12;;;;;;;28.63;21.35;;;17.20;99.90;;;22.32;51.56;98551.84;5551332;25;20001;-79
2024/04/09 00:58:49;;;;;;;27.40;19.48;;;17.20;99.90;;;22.29;50.76;98560.22;5531390;25;20531;-77
2024/04/09 01:01:22;;;;;;;30.17;18.88;;;17.10;99.90;;;22.27;51.06;98560.41;5554292;25;20005;-77
2024/04/09 01:03:57;;;;;;;27.65;19.50;;;17.20;99.90;;;22.27;51.12;98564.91;5562129;25;20350;-78
2024/04/09 01:06:25;;;;;;;32.85;18.83;;;17.20;99.90;;;22.28;50.99;98566.56;5545201;25;20008;-79
2024/04/09 01:09:00;;;;;;;26.58;16.90;;;17.20;99.90;;;22.28;50.35;98558.56;5531398;25;20004;-78
2024/04/09 01:11:30;;;;;;;27.05;16.95;;;17.10;99.90;;;22.23;50.17;98559.13;5555322;25;20008;-79
2024/04/09 01:14:00;;;;;;;25.10;17.38;;;17.10;99.90;;;22.21;50.08;98577.19;5561869;25;20023;-77
2024/04/09 01:16:36;;;;;;;27.95;16.80;;;17.10;99.90;;;22.21;50.35;98575.34;5557703;25;20795;-77
2024/04/09 01:19:08;;;;;;;28.58;15.93;;;17.10;99.90;;;22.26;49.59;98587.28;5561976;25;20005;-78
2024/04/09 01:21:43;;;;;;;25.67;16.02;;;17.10;99.90;;;22.27;49.65;98581.75;5558916;25;20008;-79
2024/04/09 01:24:19;;;;;;;30.40;15.40;;;17.10;99.90;;;22.29;49.82;98586.91;5550686;25;19998;-78
2024/04/09 01:26:54;;;;;;;26.52;14.30;;;17.10;99.90;;;22.27;49.83;98570.25;5548269;25;20015;-78
2024/04/09 01:29:27;;;;;;;25.85;15.07;;;17.10;99.90;;;22.25;49.03;98570.47;5561943;25;20462;-77
2024/04/09 01:32:02;;;;;;;25.20;16.10;;;17.10;99.80;;;22.23;49.21;98556.47;5546532;25;19997;-79
2024/04/09 01:34:35;;;;;;;27.27;15.35;;;17.00;99.50;;;22.24;49.36;98561.63;5558324;25;20005;-78
2024/04/09 01:37:12;;;;;;;23.65;15.60;;;17.00;99.70;;;22.24;49.24;98553.63;5559335;25;20012;-78
2024/04/09 01:39:42;;;;;;;23.73;14.15;;;17.00;99.60;;;22.22;48.71;98549.50;5538092;25;20016;-78
2024/04/09 01:42:17;;;;;;;25.88;15.52;;;17.00;99.50;;;22.21;49.09;98550.53;5542889;25;20002;-79
2024/04/09 01:44:49;;;;;;;25.45;14.05;;;16.90;99.70;;;22.18;49.26;98548.25;5543738;25;20007;-78
2024/04/09 01:47:25;;;;;;;31.52;14.38;;;16.90;99.90;;;22.11;49.41;98534.03;5561191;25;20005;-78
2024/04/09 01:49:57;;;;;;;25.98;14.48;;;16.90;99.90;;;22.03;49.40;98540.34;5545197;25;20023;-78
2024/04/09 01:52:34;;;;;;;21.45;14.52;;;16.80;99.90;;;21.99;48.88;98544.44;5550384;25;20001;-78
2024/04/09 01:55:13;;;;;;;24.63;14.13;;;16.70;99.90;;;21.88;49.50;98544.94;5561792;25;20005;-79
2024/04/09 01:57:46;;;;;;;25.85;14.43;;;16.70;99.90;;;21.76;49.90;98546.47;5523537;25;20463;-79
2024/04/09 02:00:22;;;;;;;24.02;14.73;;;16.60;99.90;;;21.71;49.62;98548.88;5560512;25;20001;-78
2024/04/09 02:02:55;;;;;;;22.05;14.20;;;16.60;99.90;;;21.69;49.74;98559.75;5556913;25;20446;-78
2024/04/09 02:05:30;;;;;;;22.40;14.98;;;16.60;99.90;;;21.71;49.95;98555.03;5561963;25;20346;-80
2024/04/09 02:07:58;;;;;;;24.77;14.95;;;16.60;99.90;;;21.72;49.42;98550.53;5541412;25;20012;-82
2024/04/09 02:10:36;;;;;;;25.65;14.35;;;16.50;99.90;;;21.69;49.77;98541.09;5563941;25;20001;-82
2024/04/09 02:13:04;;;;;;;26.48;14.63;;;16.50;99.90;;;21.71;49.73;98540.88;5564409;25;20000;-79
2024/04/09 02:15:34;;;;;;;21.30;14.65;;;16.50;99.90;;;21.68;49.45;98536.78;5564615;25;20072;-80
2024/04/09 02:18:02;;;;;;;24.25;13.70;;;16.40;99.90;;;21.68;49.43;98527.94;5564112;25;20016;-80
2024/04/09 02:20:38;;;;;;;22.02;12.88;;;16.40;99.90;;;21.64;49.44;98526.69;5564186;25;20012;-79
2024/04/09 02:23:11;;;;;;;25.48;15.02;;;16.30;99.90;;;21.62;49.22;98520.72;5548395;25;20013;-80
2024/04/09 02:25:48;;;;;;;23.63;14.25;;;16.30;99.90;;;21.61;49.59;98521.72;5527324;26;20005;-79
2024/04/09 02:28:21;;;;;;;20.33;14.18;;;16.30;99.90;;;21.56;49.81;98526.81;5537810;25;20369;-79
2024/04/09 02:30:56;;;;;;;25.65;15.63;;;16.20;99.90;;;21.52;49.82;98529.03;5556358;25;20008;-79
2024/04/09 02:33:29;;;;;;;27.05;16.50;;;16.20;99.90;;;21.47;49.99;98534.09;5564752;25;20020;-79
2024/04/09 02:36:09;;;;;;;27.23;15.57;;;16.20;99.90;;;21.42;50.50;98533.88;5564899;25;20350;-79
2024/04/09 02:38:37;;;;;;;30.33;16.23;;;16.10;99.90;;;21.40;50.31;98527.09;5540917;25;20005;-78
2024/04/09 02:41:16;;;;;;;27.27;17.02;;;16.10;99.90;;;21.34;50.49;98525.19;5532738;25;20001;-78
2024/04/09 02:43:49;;;;;;;27.10;17.85;;;16.10;99.90;;;21.31;50.47;98528.22;5561119;25;20005;-78
2024/04/09 02:46:24;;;;;;;25.92;17.02;;;16.10;99.90;;;21.27;51.35;98522.47;5550109;25;19996;-78
2024/04/09 02:48:52;;;;;;;22.33;15.93;;;16.10;99.90;;;21.25;50.51;98529.81;5545664;25;20005;-78
2024/04/09 02:51:27;;;;;;;27.40;15.18;;;16.10;99.90;;;21.26;50.72;98512.00;5539288;25;20351;-79
2024/04/09 02:53:59;;;;;;;25.00;16.60;;;16.00;99.90;;;21.26;51.04;98509.34;5564481;25;20000;-78
2024/04/09 02:56:34;;;;;;;26.88;16.65;;;16.00;99.90;;;21.27;51.32;98506.50;5531190;25;20020;-78
2024/04/09 02:59:07;;;;;;;26.98;16.83;;;16.00;99.90;;;21.25;51.61;98492.53;5563486;25;20012;-78
2024/04/09 03:01:43;;;;;;;24.50;17.73;;;16.00;99.90;;;21.24;51.34;98496.19;5543097;25;20001;-78
2024/04/09 03:04:15;;;;;;;26.52;16.42;;;16.00;99.90;;;21.23;51.11;98494.56;5547184;25;20020;-78
2024/04/09 03:06:45;;;;;;;28.73;16.75;;;16.00;99.90;;;21.19;51.58;98495.97;5533003;25;20012;-78
2024/04/09 03:09:18;;;;;;;27.67;15.80;;;15.90;99.90;;;21.14;51.88;98490.38;5549043;25;20058;-77
2024/04/09 03:11:56;;;;;;;24.85;15.95;;;15.90;99.90;;;21.08;51.37;98497.25;5554408;25;20798;-77
2024/04/09 03:14:28;;;;;;;26.00;16.60;;;15.90;99.90;;;21.06;51.93;98503.78;5561807;25;20000;-77
2024/04/09 03:17:04;;;;;;;25.88;16.13;;;15.90;99.90;;;21.07;51.69;98500.94;5554146;25;20019;-77
2024/04/09 03:19:38;;;;;;;32.78;16.70;;;15.80;99.90;;;21.05;51.85;98500.28;5554093;25;20878;-78
2024/04/09 03:22:13;;;;;;;27.67;16.83;;;15.80;99.90;;;21.06;51.67;98503.78;5530967;25;20016;-77
2024/04/09 03:24:47;;;;;;;25.75;15.82;;;15.80;99.90;;;21.07;51.48;98500.13;5557301;25;19996;-77
2024/04/09 03:27:25;;;;;;;26.40;16.80;;;15.80;99.90;;;21.09;51.49;98498.06;5538270;25;19996;-77
2024/04/09 03:29:59;;;;;;;27.60;15.90;;;15.80;99.90;;;21.05;51.64;98502.13;5559042;25;20001;-77
2024/04/09 03:32:34;;;;;;;25.27;15.48;;;15.70;99.90;;;21.05;51.38;98497.63;5555556;25;20001;-80
2024/04/09 03:35:02;;;;;;;27.33;16.33;;;15.70;99.90;;;21.02;51.37;98503.31;5559641;25;20473;-80
2024/04/09 03:37:32;;;;;;;21.38;14.32;;;15.70;99.90;;;20.99;51.75;98501.03;5553916;25;20466;-80
2024/04/09 03:40:09;;;;;;;25.80;15.85;;;15.70;99.90;;;21.01;51.78;98498.22;5533471;25;20004;-80
2024/04/09 03:42:42;;;;;;;24.90;15.70;;;15.70;99.90;;;20.99;51.70;98494.88;5560541;25;20000;-79
2024/04/09 03:45:11;;;;;;;25.58;17.02;;;15.70;99.90;;;20.99;52.00;98498.38;5558257;25;19997;-79
2024/04/09 03:47:46;;;;;;;24.80;16.40;;;15.70;99.90;;;21.00;52.06;98493.88;5528376;25;19998;-79
2024/04/09 03:50:19;;;;;;;25.45;17.17;;;15.70;99.90;;;21.00;51.63;98489.41;5526228;25;20001;-80
2024/04/09 03:52:58;;;;;;;26.65;18.08;;;15.70;99.90;;;21.03;52.12;98486.34;5563422;25;20004;-80
2024/04/09 03:55:25;;;;;;;27.30;16.15;;;15.70;99.90;;;21.01;51.58;98484.91;5563164;25;20005;-80
2024/04/09 03:58:03;;;;;;;26.30;16.65;;;15.80;99.90;;;20.99;51.70;98486.91;5525338;25;20001;-79
2024/04/09 04:00:31;;;;;;;24.15;16.70;;;15.80;99.90;;;20.99;52.02;98489.56;5539089;25;20466;-80
2024/04/09 04:03:07;;;;;;;27.58;16.55;;;15.80;99.90;;;21.01;51.72;98490.22;5546357;25;20008;-79
2024/04/09 04:05:39;;;;;;;25.80;16.63;;;15.80;99.90;;;21.00;51.72;98485.91;5549494;25;20009;-79
2024/04/09 04:08:14;;;;;;;31.38;17.77;;;15.80;99.90;;;20.99;51.93;98492.22;5559416;25;20001;-79
2024/04/09 04:10:42;;;;;;;32.28;17.80;;;15.80;99.90;;;21.02;51.65;98497.16;5549632;25;20001;-79
2024/04/09 04:13:15;;;;;;;25.30;17.52;;;15.80;99.90;;;21.03;51.70;98499.66;5549860;25;20005;-80
2024/04/09 04:15:42;;;;;;;27.27;17.30;;;15.80;99.90;;;21.01;51.79;98499.00;5555803;25;21894;-80
2024/04/09 04:18:12;;;;;;;26.90;17.50;;;15.90;99.90;;;21.00;52.12;98496.56;5561926;25;20468;-80
2024/04/09 04:20:51;;;;;;;25.85;17.83;;;15.90;99.90;;;20.95;52.00;98491.78;5550591;25;19997;-79
2024/04/09 04:23:27;;;;;;;27.15;18.75;;;15.90;99.90;;;20.98;51.95;98496.72;5549371;25;20004;-79
2024/04/09 04:26:02;;;;;;;27.63;18.23;;;15.90;99.90;;;20.93;52.00;98483.19;5555851;25;20011;-79
2024/04/09 04:28:37;;;;;;;31.67;19.10;;;15.90;99.90;;;20.95;51.91;98488.28;5559066;25;20395;-79
2024/04/09 04:31:12;;;;;;;29.52;19.85;;;15.90;99.90;;;20.97;51.96;98486.28;5557058;25;20342;-79
2024/04/09 04:33:49;;;;;;;29.90;20.17;;;15.90;99.90;;;20.96;52.52;98488.13;5543239;25;20004;-79
2024/04/09 04:36:18;;;;;;;31.20;18.52;;;15.90;99.90;;;20.92;52.69;98492.16;5554688;25;21667;-80
2024/04/09 04:38:52;;;;;;;36.22;21.40;;;15.90;99.90;;;20.93;52.17;98499.13;5545756;25;20015;-79
2024/04/09 04:41:46;;;;;;;30.50;20.33;;;16.00;99.90;;;20.94;52.18;98500.81;5542262;25;19993;-79
2024/04/09 04:44:21;;;;;;;27.60;19.02;;;16.00;99.90;;;20.96;52.88;98506.75;5560252;25;20005;-78
2024/04/09 04:46:57;;;;;;;35.50;21.58;;;16.00;99.90;;;21.00;52.45;98516.00;5545500;25;20470;-78
2024/04/09 04:49:30;;;;;;;29.60;20.05;;;16.00;99.90;;;21.02;52.45;98516.63;5532591;25;20083;-77
2024/04/09 04:52:06;;;;;;;30.80;21.15;;;16.00;99.90;;;21.02;52.71;98505.97;5547892;25;20466;-78
2024/04/09 04:54:38;;;;;;;30.10;21.08;;;16.00;99.90;;;21.00;53.13;98510.69;5555280;25;20005;-77
2024/04/09 04:57:14;;;;;;;31.67;20.88;;;16.00;99.90;;;20.98;52.83;98504.72;5543359;25;20579;-77
2024/04/09 04:59:49;;;;;;;34.08;20.70;;;16.00;99.90;;;20.99;52.45;98500.22;5542971;25;19997;-76
2024/04/09 05:02:24;;;;;;;37.40;21.40;;;16.00;99.90;;;20.98;52.98;98504.72;5554642;25;20009;-77
2024/04/09 05:04:53;;;;;;;30.88;22.30;;;16.00;99.90;;;21.00;53.12;98508.03;5522519;26;20073;-77
2024/04/09 05:07:23;;;;;;;31.38;20.95;;;16.00;99.90;;;21.00;52.64;98504.53;5526544;25;20324;-77
2024/04/09 05:09:56;;;;;;;32.45;22.63;;;16.00;99.90;;;21.00;53.28;98509.84;5534094;25;20005;-77
2024/04/09 05:12:32;;;;;;;30.67;22.65;;;16.00;99.90;;;20.96;53.07;98512.06;5516984;25;20042;-76
2024/04/09 05:15:08;;;;;;;28.08;22.33;;;16.10;99.90;;;21.00;53.13;98500.03;5550261;25;20451;-76
2024/04/09 05:17:38;;;;;;;32.07;25.83;;;16.10;99.90;;;21.01;53.44;98495.53;5534038;25;20481;-77
2024/04/09 05:20:12;;;;;;;33.90;25.00;;;16.10;99.90;;;21.01;53.24;98500.88;5545722;25;20241;-77
2024/04/09 05:22:44;;;;;;;32.28;25.23;;;16.10;99.90;;;21.00;53.41;98505.38;5543210;25;20002;-76
2024/04/09 05:25:13;;;;;;;32.47;25.50;;;16.10;99.90;;;21.00;53.33;98516.00;5536165;25;20473;-76
2024/04/09 05:27:49;;;;;;;35.20;25.02;;;16.10;99.90;;;21.01;53.43;98516.84;5536253;25;20000;-77
2024/04/09 05:30:24;;;;;;;38.85;25.55;;;16.10;99.90;;;21.07;53.70;98529.38;5552034;25;20024;-78
2024/04/09 05:32:59;;;;;;;34.53;24.75;;;16.20;99.90;;;21.11;53.64;98522.69;5535005;25;20065;-78
2024/04/09 05:35:27;;;;;;;37.33;26.30;;;16.20;99.90;;;21.11;53.03;98523.50;5526107;25;20009;-78
2024/04/09 05:38:02;;;;;;;36.15;25.65;;;16.20;99.90;;;21.11;53.62;98523.50;5531630;25;20020;-77
2024/04/09 05:40:30;;;;;;;40.75;25.10;;;16.20;99.90;;;21.09;53.89;98530.00;5509315;25;21177;-79
2024/04/09 05:43:00;;;;;;;33.35;25.42;;;16.20;99.90;;;21.08;53.58;98539.81;5519861;25;20451;-78
2024/04/09 05:45:30;;;;;;;33.78;24.77;;;16.30;99.90;;;21.12;53.43;98557.13;5513643;25;20335;-79
2024/04/09 05:48:00;;;;;;;38.33;25.77;;;16.20;99.90;;;21.14;53.70;98560.41;5522142;25;20006;-77
2024/04/09 05:50:29;;;;;;;31.52;24.20;;;16.30;99.90;;;21.16;53.85;98566.38;5535363;25;19997;-77
2024/04/09 05:52:59;;;;;;;40.03;25.50;;;16.30;99.90;;;21.21;53.13;98568.47;5546076;25;20185;-77
2024/04/09 05:55:32;;;;;;;34.97;25.15;;;16.30;99.90;;;21.25;53.18;98563.59;5555715;25;20523;-78
2024/04/09 05:58:07;;;;;;;36.58;25.15;;;16.40;99.90;;;21.29;53.41;98552.38;5556920;25;20016;-77
2024/04/09 06:00:46;;;;;;;38.45;25.92;;;16.40;99.90;;;21.30;52.71;98558.53;5529242;25;20016;-77
2024/04/09 06:03:18;;;;;;;34.45;24.17;;;16.40;99.90;;;21.27;52.58;98542.94;5549994;25;19996;-77
2024/04/09 06:05:51;;;;;;;36.45;24.98;;;16.50;99.90;;;21.25;53.02;98537.78;5546111;25;20790;-78
2024/04/09 06:08:18;;;;;;;34.22;23.35;;;16.50;99.90;;;21.23;52.92;98529.19;5544006;25;20064;-77
2024/04/09 06:10:48;;;;;;;38.95;25.25;;;16.50;99.90;;;21.18;52.08;98516.41;5544996;25;19996;-78
2024/04/09 06:13:21;;;;;;;34.45;24.45;;;16.50;99.90;;;21.17;52.43;98516.63;5553080;25;20005;-77
2024/04/09 06:15:54;;;;;;;33.83;23.70;;;16.50;99.90;;;21.17;52.04;98511.31;5521042;25;20065;-77
2024/04/09 06:18:26;;;;;;;30.75;22.35;;;16.50;99.90;;;21.13;52.07;98500.22;5524748;25;20005;-76
2024/04/09 06:21:02;;;;;;;41.05;22.65;;;16.50;99.90;;;21.08;52.29;98509.72;5533675;25;20076;-77
2024/04/09 06:23:34;;;;;;;33.67;22.05;;;16.50;99.90;;;21.14;52.19;98523.13;5557806;25;20019;-78
2024/04/09 06:26:14;;;;;;;33.80;22.52;;;16.50;99.90;;;21.21;51.99;98520.53;5556978;25;20000;-78
2024/04/09 06:28:47;;;;;;;34.38;22.42;;;16.60;99.90;;;21.26;51.86;98520.81;5556774;25;19997;-77
2024/04/09 06:31:20;;;;;;;32.83;22.30;;;16.60;99.90;;;21.32;51.79;98529.88;5557099;25;20008;-77
2024/04/09 06:33:52;;;;;;;33.72;22.75;;;16.70;99.90;;;21.38;52.01;98532.59;5557974;25;20026;-78
2024/04/09 06:36:29;;;;;;;32.40;22.80;;;16.70;99.90;;;21.41;52.00;98536.72;5536774;25;20006;-78
2024/04/09 06:38:57;;;;;;;31.70;22.85;;;16.70;99.90;;;21.42;51.57;98530.38;5492894;25;20336;-78
2024/04/09 06:41:32;;;;;;;32.42;23.27;;;16.70;99.90;;;21.39;51.58;98525.44;5554554;25;20438;-78
2024/04/09 06:44:07;;;;;;;35.83;23.85;;;16.60;99.90;;;21.33;51.81;98515.53;5557268;25;20004;-78
2024/04/09 06:46:42;;;;;;;35.75;24.10;;;16.60;99.90;;;21.34;51.71;98511.88;5553547;25;20000;-78
2024/04/09 06:49:18;;;;;;;35.40;22.67;;;16.60;99.90;;;21.35;51.86;98500.19;5554774;25;20453;-78
2024/04/09 06:51:50;;;;;;;35.13;25.52;;;16.70;99.90;;;21.40;51.75;98500.47;5549973;25;20020;-78
2024/04/09 06:54:20;;;;;;;34.30;23.45;;;16.70;99.90;;;21.36;51.76;98496.53;5544757;25;20891;-78
2024/04/09 06:56:53;;;;;;;33.35;24.85;;;16.70;99.90;;;21.29;52.16;98503.63;5551709;25;20000;-78
2024/04/09 06:59:29;;;;;;;34.10;24.92;;;16.60;99.90;;;21.25;52.11;98497.84;5552923;25;20080;-78
2024/04/09 07:01:59;;;;;;;33.72;25.90;;;16.60;99.90;;;21.26;52.04;98517.31;5553708;25;20004;-78
2024/04/09 07:04:35;;;;;;;37.17;25.85;;;16.60;99.90;;;21.23;52.38;98537.16;5520268;26;20008;-78
2024/04/09 07:07:08;;;;;;;36.60;24.35;;;16.60;99.90;;;21.25;52.33;98550.28;5543040;25;20684;-78
2024/04/09 07:09:38;;;;;;;35.45;24.20;;;16.60;99.90;;;21.30;52.45;98558.53;5557389;25;20008;-77
2024/04/09 07:12:07;;;;;;;35.08;24.95;;;16.70;99.90;;;21.35;52.13;98561.44;5556744;25;20004;-77
2024/04/09 07:14:42;;;;;;;38.70;26.23;;;16.70;99.90;;;21.38;51.91;98566.38;5529118;25;20800;-78
2024/04/09 07:17:17;;;;;;;38.40;26.85;;;16.70;99.90;;;21.44;51.83;98568.31;5523918;25;20358;-77
2024/04/09 07:19:55;;;;;;;40.15;25.38;;;16.80;99.90;;;21.46;52.37;98568.94;5556224;25;20045;-76
2024/04/09 07:22:28;;;;;;;42.53;28.17;;;16.80;99.90;;;21.50;51.86;98573.72;5556504;25;20009;-77
2024/04/09 07:25:04;;;;;;;38.53;26.38;;;16.90;99.90;;;21.54;51.60;98564.28;5514610;25;20507;-78
2024/04/09 07:27:37;;;;;;;35.10;25.65;;;17.00;99.90;;;21.62;52.38;98560.69;5556076;25;20000;-78
2024/04/09 07:30:14;;;;;;;39.88;25.33;;;17.10;99.90;;;21.65;51.61;98562.97;5556524;25;20080;-77
2024/04/09 07:32:49;;;;;;;38.28;26.85;;;17.10;99.90;;;21.73;51.88;98560.19;5556268;25;20477;-77
2024/04/09 07:35:24;;;;;;;35.97;26.48;;;17.20;99.90;;;21.76;51.97;98553.63;5555177;25;20008;-77
2024/04/09 07:37:57;;;;;;;35.15;25.55;;;17.20;99.90;;;21.79;51.33;98547.94;5544417;25;20439;-77
2024/04/09 07:40:27;;;;;;;46.17;25.65;;;17.20;99.90;;;21.80;51.55;98539.72;5552276;25;20584;-78
2024/04/09 07:42:55;;;;;;;37.38;25.40;;;17.30;99.90;;;21.79;51.36;98530.09;5556394;25;20005;-77
2024/04/09 07:45:31;;;;;;;38.58;26.73;;;17.20;99.90;;;21.75;51.74;98526.16;5556856;25;20473;-76
2024/04/09 07:48:12;;;;;;;32.05;24.95;;;17.20;99.90;;;21.77;51.49;98526.78;5549871;25;20000;-76
2024/04/09 07:50:45;;;;;;;38.33;26.90;;;17.30;99.90;;;21.78;51.44;98536.44;5556743;25;20008;-77
2024/04/09 07:53:16;;;;;;;35.92;24.45;;;17.30;99.90;;;21.76;51.50;98530.50;5556980;25;20000;-76
2024/04/09 07:55:49;;;;;;;30.33;23.85;;;17.30;99.90;;;21.82;51.58;98542.22;5555014;25;20019;-76
2024/04/09 07:58:24;;;;;;;36.92;23.92;;;17.40;99.90;;;21.89;51.31;98554.59;5556878;25;20005;-76
2024/04/09 08:00:56;;;;;;;31.42;23.00;;;17.40;99.90;;;21.93;51.39;98553.19;5556913;25;20005;-76
2024/04/09 08:03:34;;;;;;;33.72;24.48;;;17.40;99.90;;;21.96;51.27;98549.31;5555766;25;20076;-76
2024/04/09 08:06:07;;;;;;;35.13;24.73;;;17.30;99.90;;;21.88;51.54;98555.59;5555693;25;20000;-76
2024/04/09 08:08:43;;;;;;;34.25;24.17;;;17.20;99.90;;;21.84;51.29;98556.16;5556772;25;20005;-77
2024/04/09 08:11:15;;;;;;;31.08;23.80;;;17.20;99.90;;;21.81;51.13;98554.69;5554207;25;20020;-76
2024/04/09 08:13:46;;;;;;;37.45;29.38;;;17.10;99.90;;;21.75;51.71;98555.47;5519417;25;20605;-76
2024/04/09 08:16:18;;;;;;;34.22;24.33;;;17.10;99.90;;;21.73;51.54;98565.50;5522694;25;20015;-76
2024/04/09 08:18:51;;;;;;;36.30;24.77;;;17.10;99.90;;;21.72;52.00;98575.34;5556527;25;20001;-76
2024/04/09 08:21:19;;;;;;;37.30;25.50;;;17.20;99.90;;;21.78;51.93;98575.56;5553786;25;20527;-76
2024/04/09 08:23:49;;;;;;;34.38;25.55;;;17.30;99.90;;;21.85;51.48;98574.63;5556050;25;20001;-76
2024/04/09 08:26:23;;;;;;;35.58;25.83;;;17.40;99.90;;;21.91;51.98;98581.06;5555572;25;20016;-77
2024/04/09 08:28:54;;;;;;;33.55;26.40;;;17.40;99.90;;;21.95;51.37;98585.00;5555785;25;20004;-75
2024/04/09 08:31:32;;;;;;;35.47;25.15;;;17.50;99.90;;;21.95;51.30;98595.66;5555430;25;20015;-77
2024/04/09 08:34:09;;;;;;;38.33;25.50;;;17.40;99.90;;;21.97;51.84;98594.44;5556016;25;20004;-76
2024/04/09 08:36:37;;;;;;;37.72;24.65;;;17.40;99.90;;;21.97;51.90;98596.28;5537063;25;20009;-77
2024/04/09 08:39:13;;;;;;;30.50;25.02;;;17.50;99.90;;;22.01;51.92;98582.38;5503958;25;20013;-76
2024/04/09 08:41:40;;;;;;;40.95;26.23;;;17.50;99.90;;;22.00;52.15;98583.38;5556113;25;20552;-77
2024/04/09 08:44:17;;;;;;;37.30;24.77;;;17.50;99.90;;;21.96;51.60;98579.47;5555062;25;20057;-76
2024/04/09 08:46:51;;;;;;;39.13;28.88;;;17.40;99.90;;;21.97;51.75;98578.44;5553134;25;20470;-76
2024/04/09 08:49:25;;;;;;;37.45;27.55;;;17.40;99.90;;;22.00;51.55;98587.88;5544468;25;20020;-76
2024/04/09 08:51:54;;;;;;;43.53;27.95;;;17.50;99.90;;;22.02;51.96;98589.38;5554153;25;20005;-76
2024/04/09 08:54:30;;;;;;;35.30;26.40;;;17.50;99.90;;;21.99;51.92;98592.41;5554956;25;20005;-77
2024/04/09 08:56:59;;;;;;;37.65;28.65;;;17.40;99.90;;;21.97;52.09;98599.75;5555835;25;20016;-78
2024/04/09 08:59:34;;;;;;;36.63;27.02;;;17.50;99.90;;;22.00;52.09;98601.22;5550914;25;20004;-77
2024/04/09 09:02:12;;;;;;;36.10;26.30;;;17.50;99.90;;;22.09;52.10;98608.06;5537839;25;20008;-78
2024/04/09 09:04:51;;;;;;;34.15;26.67;;;17.60;99.90;;;22.15;51.98;98601.97;5539624;25;20454;-78
2024/04/09 09:07:24;;;;;;;36.88;28.58;;;17.70;99.90;;;22.16;51.92;98592.97;5521700;25;20032;-75
2024/04/09 09:10:03;;;;;;;40.28;28.17;;;17.70;99.90;;;22.17;51.28;98591.91;5542529;25;20026;-77
2024/04/09 09:12:36;;;;;;;34.05;26.75;;;17.70;99.90;;;22.23;51.84;98580.47;5552863;25;20011;-78
2024/04/09 09:15:08;;;;;;;44.92;29.25;;;17.90;99.90;;;22.28;51.11;98579.91;5555181;25;20024;-77
2024/04/09 09:17:44;;;;;;;39.03;27.95;;;17.80;99.90;;;22.26;51.65;98580.13;5555920;25;20001;-78
2024/04/09 09:20:22;;;;;;;41.00;27.13;;;17.90;99.90;;;22.35;52.02;98580.78;5555254;25;20004;-78
2024/04/09 09:22:55;;;;;;;35.20;26.67;;;18.00;99.90;;;22.38;51.66;98591.06;5549734;25;20005;-78
2024/04/09 09:25:26;;;;;;;39.78;27.95;;;18.10;99.90;;;22.39;51.19;98590.88;5550270;25;20034;-78
2024/04/09 09:28:06;;;;;;;36.38;27.13;;;18.00;99.90;;;22.42;51.60;98586.97;5554792;25;20011;-78
2024/04/09 09:30:42;;;;;;;39.60;28.10;;;18.10;99.90;;;22.51;51.70;98589.28;5555606;25;20005;-77
2024/04/09 09:33:21;;;;;;;34.90;27.38;;;18.20;99.90;;;22.56;51.05;98589.50;5553992;25;20011;-77
2024/04/09 09:35:59;;;;;;;39.97;29.00;;;18.30;99.90;;;22.52;51.35;98576.78;5555739;25;20346;-78
2024/04/09 09:38:32;;;;;;;38.67;27.73;;;18.20;99.90;;;22.56;50.80;98570.84;5554625;25;20015;-77
2024/04/09 09:41:10;;;;;;;38.33;27.33;;;18.30;99.80;;;22.55;50.76;98576.38;5558949;25;20004;-78
2024/04/09 09:43:44;;;;;;;35.88;27.38;;;18.20;99.90;;;22.52;51.49;98572.28;5549068;25;20008;-78
2024/04/09 09:46:20;;;;;;;38.70;29.58;;;18.10;99.90;;;22.55;50.63;98573.72;5555029;25;20004;-78
2024/04/09 09:48:53;;;;;;;33.75;26.45;;;18.10;99.90;;;22.58;51.29;98576.00;5554816;25;20005;-78
2024/04/09 09:51:31;;;;;;;41.00;29.25;;;18.20;99.90;;;22.67;50.72;98570.31;5555127;25;20004;-78
2024/04/09 09:54:04;;;;;;;38.00;28.45;;;18.20;99.90;;;22.67;50.64;98574.84;5517185;26;20636;-78
2024/04/09 09:56:42;;;;;;;36.70;28.13;;;18.20;99.90;;;22.77;51.17;98591.31;5517569;26;20350;-77
2024/04/09 09:59:16;;;;;;;36.97;28.33;;;18.40;99.90;;;22.86;50.50;98615.97;5527445;25;20010;-76
2024/04/09 10:01:55;;;;;;;37.33;27.98;;;18.50;99.00;;;22.87;50.24;98606.97;5524529;25;20019;-78
2024/04/09 10:04:28;;;;;;;43.92;28.58;;;18.40;98.50;;;22.83;50.43;98595.84;5529197;25;20320;-75
2024/04/09 10:07:07;;;;;;;44.50;29.58;;;18.40;98.80;;;22.81;50.61;98592.56;5529168;25;20004;-77
2024/04/09 10:09:53;;;;;;;40.67;29.95;;;18.40;98.90;;;22.71;50.89;98584.94;5548661;25;20004;-77
2024/04/09 10:12:33;;;;;;;39.23;29.87;;;18.40;99.00;;;22.78;50.64;98592.97;5541195;25;20796;-78
2024/04/09 10:15:08;;;;;;;37.63;28.25;;;18.50;99.10;;;22.86;50.39;98594.63;5547732;25;20024;-77
2024/04/09 10:17:54;;;;;;;43.33;30.13;;;18.50;99.10;;;22.87;50.98;98596.28;5554497;25;20005;-78
2024/04/09 10:20:30;;;;;;;39.78;30.65;;;18.50;98.60;;;22.87;50.97;98597.13;5551747;25;19993;-78
2024/04/09 10:23:09;;;;;;;38.17;29.75;;;18.60;98.80;;;22.84;50.50;98584.16;5550431;25;20000;-77
2024/04/09 10:25:39;;;;;;;41.33;31.02;;;18.50;98.80;;;22.87;49.99;98575.75;5543972;25;20076;-77
2024/04/09 10:28:27;;;;;;;41.70;31.40;;;18.50;98.90;;;22.85;50.08;98575.16;5548129;25;20000;-77
2024/04/09 10:31:02;;;;;;;39.63;30.23;;;18.50;98.80;;;22.77;50.36;98580.63;5547699;25;20004;-77
2024/04/09 10:33:35;;;;;;;41.17;32.75;;;18.40;99.20;;;22.83;50.98;98584.34;5553459;25;20016;-77